< < Back
Terminal Aerodrome Forecast


Current Version              Previous Versions:   1  2  3  4  5  6  7  8  9  

Terminal Aerodrome Forecast

039
FTUS42 KTAE 232322
TAFVLD
TAF
KVLD 232322Z 2400/2424 VRB03KT P6SM SCT250
     FM241800 17007KT P6SM SCT040 SCT250=

Latest METAR

611
SAUS70 KWBC 242000 RRH
MTRVLD
METAR KVLD 241953Z AUTO 17005KT 10SM FEW060 34/21 A3000 RMK AO2 SLP165
T03440206


USA.gov is the U.S. government's official web portal to all federal, state and local government web resources and services.